sensor_id;sensor_type;location;lat;lon;timestamp;P1;durP1;ratioP1;P2;durP2;ratioP2
19043;SDS011;9654;52.302;8.120;2022-12-18T00:02:05;87.10;;;33.27;;
19043;SDS011;9654;52.302;8.120;2022-12-18T00:04:33;93.33;;;33.43;;
19043;SDS011;9654;52.302;8.120;2022-12-18T00:07:00;89.60;;;32.47;;
19043;SDS011;9654;52.302;8.120;2022-12-18T00:09:26;78.23;;;32.37;;
19043;SDS011;9654;52.302;8.120;2022-12-18T00:11:53;84.67;;;32.53;;
19043;SDS011;9654;52.302;8.120;2022-12-18T00:14:20;82.10;;;30.63;;
19043;SDS011;9654;52.302;8.120;2022-12-18T00:16:47;82.33;;;31.50;;
19043;SDS011;9654;52.302;8.120;2022-12-18T00:19:14;79.07;;;29.97;;
19043;SDS011;9654;52.302;8.120;2022-12-18T00:21:42;78.77;;;32.30;;
19043;SDS011;9654;52.302;8.120;2022-12-18T00:24:10;77.40;;;30.57;;
19043;SDS011;9654;52.302;8.120;2022-12-18T00:26:38;78.63;;;29.60;;
19043;SDS011;9654;52.302;8.120;2022-12-18T00:29:06;71.90;;;29.43;;
19043;SDS011;9654;52.302;8.120;2022-12-18T00:31:34;81.63;;;30.47;;
19043;SDS011;9654;52.302;8.120;2022-12-18T00:34:01;60.00;;;26.40;;
19043;SDS011;9654;52.302;8.120;2022-12-18T00:36:29;61.90;;;25.23;;
19043;SDS011;9654;52.302;8.120;2022-12-18T00:39:00;67.13;;;24.67;;
19043;SDS011;9654;52.302;8.120;2022-12-18T00:41:27;51.80;;;23.40;;
19043;SDS011;9654;52.302;8.120;2022-12-18T00:44:13;52.00;;;22.60;;
19043;SDS011;9654;52.302;8.120;2022-12-18T00:46:41;63.83;;;22.90;;
19043;SDS011;9654;52.302;8.120;2022-12-18T00:49:08;63.43;;;25.93;;
19043;SDS011;9654;52.302;8.120;2022-12-18T00:51:38;68.83;;;26.87;;
19043;SDS011;9654;52.302;8.120;2022-12-18T00:54:06;68.70;;;27.37;;
19043;SDS011;9654;52.302;8.120;2022-12-18T00:56:34;69.70;;;26.27;;
19043;SDS011;9654;52.302;8.120;2022-12-18T00:59:02;66.80;;;27.17;;
19043;SDS011;9654;52.302;8.120;2022-12-18T01:01:29;74.10;;;28.97;;
19043;SDS011;9654;52.302;8.120;2022-12-18T01:03:59;70.50;;;28.17;;
19043;SDS011;9654;52.302;8.120;2022-12-18T01:06:26;62.03;;;26.13;;
19043;SDS011;9654;52.302;8.120;2022-12-18T01:08:53;52.30;;;24.50;;
19043;SDS011;9654;52.302;8.120;2022-12-18T01:11:22;71.70;;;26.53;;
19043;SDS011;9654;52.302;8.120;2022-12-18T01:13:49;63.70;;;25.07;;
19043;SDS011;9654;52.302;8.120;2022-12-18T01:16:18;60.80;;;26.13;;
19043;SDS011;9654;52.302;8.120;2022-12-18T01:18:45;65.53;;;25.83;;
19043;SDS011;9654;52.302;8.120;2022-12-18T01:21:13;63.00;;;26.00;;
19043;SDS011;9654;52.302;8.120;2022-12-18T01:23:45;73.47;;;28.20;;
19043;SDS011;9654;52.302;8.120;2022-12-18T01:26:13;59.80;;;26.73;;
19043;SDS011;9654;52.302;8.120;2022-12-18T01:28:42;65.17;;;26.10;;
19043;SDS011;9654;52.302;8.120;2022-12-18T01:31:13;69.43;;;26.63;;
19043;SDS011;9654;52.302;8.120;2022-12-18T01:33:42;70.50;;;28.87;;
19043;SDS011;9654;52.302;8.120;2022-12-18T01:36:14;67.43;;;26.97;;
19043;SDS011;9654;52.302;8.120;2022-12-18T01:38:42;72.67;;;27.87;;
19043;SDS011;9654;52.302;8.120;2022-12-18T01:41:09;64.73;;;26.23;;
19043;SDS011;9654;52.302;8.120;2022-12-18T01:43:45;62.73;;;25.40;;
19043;SDS011;9654;52.302;8.120;2022-12-18T01:46:14;65.97;;;27.03;;
19043;SDS011;9654;52.302;8.120;2022-12-18T01:48:42;66.17;;;26.90;;
19043;SDS011;9654;52.302;8.120;2022-12-18T01:51:10;55.60;;;24.63;;
19043;SDS011;9654;52.302;8.120;2022-12-18T01:53:38;59.23;;;23.57;;
19043;SDS011;9654;52.302;8.120;2022-12-18T01:56:11;55.80;;;22.80;;
19043;SDS011;9654;52.302;8.120;2022-12-18T01:58:43;49.07;;;21.17;;
19043;SDS011;9654;52.302;8.120;2022-12-18T02:01:16;47.33;;;20.43;;
19043;SDS011;9654;52.302;8.120;2022-12-18T02:03:43;54.57;;;21.83;;
19043;SDS011;9654;52.302;8.120;2022-12-18T02:06:12;48.77;;;19.73;;
19043;SDS011;9654;52.302;8.120;2022-12-18T02:08:45;50.87;;;19.73;;
19043;SDS011;9654;52.302;8.120;2022-12-18T02:11:17;47.93;;;20.60;;
19043;SDS011;9654;52.302;8.120;2022-12-18T02:13:53;44.20;;;18.33;;
19043;SDS011;9654;52.302;8.120;2022-12-18T02:16:28;41.67;;;18.13;;
19043;SDS011;9654;52.302;8.120;2022-12-18T02:19:03;43.03;;;19.43;;
19043;SDS011;9654;52.302;8.120;2022-12-18T02:21:44;50.47;;;19.93;;
19043;SDS011;9654;52.302;8.120;2022-12-18T02:24:17;52.77;;;19.30;;
19043;SDS011;9654;52.302;8.120;2022-12-18T02:26:55;42.63;;;17.80;;
19043;SDS011;9654;52.302;8.120;2022-12-18T02:29:24;42.33;;;17.87;;
19043;SDS011;9654;52.302;8.120;2022-12-18T02:31:56;41.17;;;17.80;;
19043;SDS011;9654;52.302;8.120;2022-12-18T02:34:28;42.30;;;17.87;;
19043;SDS011;9654;52.302;8.120;2022-12-18T02:36:57;43.80;;;17.83;;
19043;SDS011;9654;52.302;8.120;2022-12-18T02:39:28;51.83;;;17.97;;
19043;SDS011;9654;52.302;8.120;2022-12-18T02:41:58;42.57;;;19.13;;
19043;SDS011;9654;52.302;8.120;2022-12-18T02:44:27;40.87;;;17.60;;
19043;SDS011;9654;52.302;8.120;2022-12-18T02:46:54;45.40;;;18.80;;
19043;SDS011;9654;52.302;8.120;2022-12-18T02:49:26;55.30;;;20.93;;
19043;SDS011;9654;52.302;8.120;2022-12-18T02:52:02;49.57;;;20.17;;
19043;SDS011;9654;52.302;8.120;2022-12-18T02:54:38;42.40;;;18.50;;
19043;SDS011;9654;52.302;8.120;2022-12-18T02:57:18;42.93;;;18.47;;
19043;SDS011;9654;52.302;8.120;2022-12-18T02:59:54;47.13;;;19.47;;
19043;SDS011;9654;52.302;8.120;2022-12-18T03:02:25;48.50;;;19.70;;
19043;SDS011;9654;52.302;8.120;2022-12-18T03:04:58;48.23;;;19.80;;
19043;SDS011;9654;52.302;8.120;2022-12-18T03:07:33;42.70;;;19.13;;
19043;SDS011;9654;52.302;8.120;2022-12-18T03:10:03;41.83;;;17.63;;
19043;SDS011;9654;52.302;8.120;2022-12-18T03:12:36;41.07;;;18.37;;
19043;SDS011;9654;52.302;8.120;2022-12-18T03:15:10;42.47;;;18.77;;
19043;SDS011;9654;52.302;8.120;2022-12-18T03:17:41;47.67;;;19.13;;
19043;SDS011;9654;52.302;8.120;2022-12-18T03:20:13;46.70;;;19.47;;
19043;SDS011;9654;52.302;8.120;2022-12-18T03:22:43;50.97;;;19.77;;
19043;SDS011;9654;52.302;8.120;2022-12-18T03:25:13;53.33;;;20.50;;
19043;SDS011;9654;52.302;8.120;2022-12-18T03:27:45;43.23;;;18.13;;
19043;SDS011;9654;52.302;8.120;2022-12-18T03:30:15;45.40;;;17.70;;
19043;SDS011;9654;52.302;8.120;2022-12-18T03:32:43;39.00;;;16.57;;
19043;SDS011;9654;52.302;8.120;2022-12-18T03:35:21;42.03;;;17.30;;
19043;SDS011;9654;52.302;8.120;2022-12-18T03:37:52;38.60;;;17.47;;
19043;SDS011;9654;52.302;8.120;2022-12-18T03:40:19;37.97;;;16.77;;
19043;SDS011;9654;52.302;8.120;2022-12-18T03:42:51;43.30;;;17.67;;
19043;SDS011;9654;52.302;8.120;2022-12-18T03:45:24;37.83;;;15.70;;
19043;SDS011;9654;52.302;8.120;2022-12-18T03:47:58;39.57;;;16.90;;
19043;SDS011;9654;52.302;8.120;2022-12-18T03:50:29;39.57;;;17.27;;
19043;SDS011;9654;52.302;8.120;2022-12-18T03:53:06;36.93;;;17.33;;
19043;SDS011;9654;52.302;8.120;2022-12-18T03:55:42;44.40;;;18.57;;
19043;SDS011;9654;52.302;8.120;2022-12-18T03:58:11;41.67;;;16.43;;
19043;SDS011;9654;52.302;8.120;2022-12-18T04:00:42;44.00;;;19.17;;
19043;SDS011;9654;52.302;8.120;2022-12-18T04:03:09;37.93;;;16.40;;
19043;SDS011;9654;52.302;8.120;2022-12-18T04:05:38;48.80;;;18.07;;
19043;SDS011;9654;52.302;8.120;2022-12-18T04:08:06;40.50;;;16.27;;
19043;SDS011;9654;52.302;8.120;2022-12-18T04:10:36;47.93;;;19.83;;
19043;SDS011;9654;52.302;8.120;2022-12-18T04:13:02;42.23;;;19.33;;
19043;SDS011;9654;52.302;8.120;2022-12-18T04:15:31;45.67;;;18.07;;
19043;SDS011;9654;52.302;8.120;2022-12-18T04:18:00;45.00;;;17.47;;
19043;SDS011;9654;52.302;8.120;2022-12-18T04:20:27;33.50;;;15.77;;
19043;SDS011;9654;52.302;8.120;2022-12-18T04:22:55;32.10;;;14.53;;
19043;SDS011;9654;52.302;8.120;2022-12-18T04:25:21;39.30;;;15.23;;
19043;SDS011;9654;52.302;8.120;2022-12-18T04:27:48;50.63;;;19.97;;
19043;SDS011;9654;52.302;8.120;2022-12-18T04:30:15;42.30;;;17.87;;
19043;SDS011;9654;52.302;8.120;2022-12-18T04:32:43;40.57;;;17.57;;
19043;SDS011;9654;52.302;8.120;2022-12-18T04:35:10;43.10;;;19.33;;
19043;SDS011;9654;52.302;8.120;2022-12-18T04:37:36;42.43;;;18.50;;
19043;SDS011;9654;52.302;8.120;2022-12-18T04:40:04;53.20;;;22.57;;
19043;SDS011;9654;52.302;8.120;2022-12-18T04:42:31;51.20;;;20.27;;
19043;SDS011;9654;52.302;8.120;2022-12-18T04:44:58;51.17;;;20.07;;
19043;SDS011;9654;52.302;8.120;2022-12-18T04:47:25;48.70;;;18.03;;
19043;SDS011;9654;52.302;8.120;2022-12-18T04:49:53;36.70;;;15.93;;
19043;SDS011;9654;52.302;8.120;2022-12-18T04:52:19;37.00;;;15.27;;
19043;SDS011;9654;52.302;8.120;2022-12-18T04:54:46;42.70;;;17.03;;
19043;SDS011;9654;52.302;8.120;2022-12-18T04:57:13;39.97;;;15.83;;
19043;SDS011;9654;52.302;8.120;2022-12-18T04:59:40;33.73;;;14.40;;
19043;SDS011;9654;52.302;8.120;2022-12-18T05:02:06;46.53;;;16.33;;
19043;SDS011;9654;52.302;8.120;2022-12-18T05:04:33;31.77;;;13.77;;
19043;SDS011;9654;52.302;8.120;2022-12-18T05:07:01;37.70;;;16.43;;
19043;SDS011;9654;52.302;8.120;2022-12-18T05:09:28;36.20;;;15.40;;
19043;SDS011;9654;52.302;8.120;2022-12-18T05:11:55;36.43;;;15.40;;
19043;SDS011;9654;52.302;8.120;2022-12-18T05:14:22;36.93;;;15.07;;
19043;SDS011;9654;52.302;8.120;2022-12-18T05:16:49;30.37;;;13.63;;
19043;SDS011;9654;52.302;8.120;2022-12-18T05:19:15;38.57;;;14.80;;
19043;SDS011;9654;52.302;8.120;2022-12-18T05:21:43;34.07;;;13.50;;
19043;SDS011;9654;52.302;8.120;2022-12-18T05:24:11;34.37;;;14.17;;
19043;SDS011;9654;52.302;8.120;2022-12-18T05:26:37;34.83;;;14.17;;
19043;SDS011;9654;52.302;8.120;2022-12-18T05:29:04;29.43;;;13.90;;
19043;SDS011;9654;52.302;8.120;2022-12-18T05:31:31;28.03;;;13.60;;
19043;SDS011;9654;52.302;8.120;2022-12-18T05:33:58;35.73;;;12.87;;
19043;SDS011;9654;52.302;8.120;2022-12-18T05:36:25;32.63;;;13.73;;
19043;SDS011;9654;52.302;8.120;2022-12-18T05:38:52;30.33;;;12.83;;
19043;SDS011;9654;52.302;8.120;2022-12-18T05:41:21;31.43;;;13.37;;
19043;SDS011;9654;52.302;8.120;2022-12-18T05:43:47;28.73;;;12.37;;
19043;SDS011;9654;52.302;8.120;2022-12-18T05:46:16;34.07;;;11.27;;
19043;SDS011;9654;52.302;8.120;2022-12-18T05:48:44;27.67;;;12.50;;
19043;SDS011;9654;52.302;8.120;2022-12-18T05:51:12;33.43;;;13.23;;
19043;SDS011;9654;52.302;8.120;2022-12-18T05:53:40;28.70;;;12.13;;
19043;SDS011;9654;52.302;8.120;2022-12-18T05:56:08;33.10;;;13.60;;
19043;SDS011;9654;52.302;8.120;2022-12-18T05:58:41;30.00;;;12.60;;
19043;SDS011;9654;52.302;8.120;2022-12-18T06:01:08;32.43;;;12.57;;
19043;SDS011;9654;52.302;8.120;2022-12-18T06:03:37;26.33;;;11.50;;
19043;SDS011;9654;52.302;8.120;2022-12-18T06:06:11;32.20;;;12.77;;
19043;SDS011;9654;52.302;8.120;2022-12-18T06:08:39;30.93;;;12.40;;
19043;SDS011;9654;52.302;8.120;2022-12-18T06:11:06;30.07;;;12.20;;
19043;SDS011;9654;52.302;8.120;2022-12-18T06:13:33;29.87;;;12.30;;
19043;SDS011;9654;52.302;8.120;2022-12-18T06:16:04;34.37;;;13.63;;
19043;SDS011;9654;52.302;8.120;2022-12-18T06:18:31;31.77;;;12.47;;
19043;SDS011;9654;52.302;8.120;2022-12-18T06:21:00;27.90;;;12.60;;
19043;SDS011;9654;52.302;8.120;2022-12-18T06:23:27;35.27;;;14.33;;
19043;SDS011;9654;52.302;8.120;2022-12-18T06:25:54;34.23;;;12.53;;
19043;SDS011;9654;52.302;8.120;2022-12-18T06:28:21;32.93;;;13.57;;
19043;SDS011;9654;52.302;8.120;2022-12-18T06:30:48;31.50;;;12.97;;
19043;SDS011;9654;52.302;8.120;2022-12-18T06:33:16;28.27;;;11.97;;
19043;SDS011;9654;52.302;8.120;2022-12-18T06:35:43;32.70;;;13.37;;
19043;SDS011;9654;52.302;8.120;2022-12-18T06:38:10;32.33;;;12.37;;
19043;SDS011;9654;52.302;8.120;2022-12-18T06:40:39;28.60;;;13.03;;
19043;SDS011;9654;52.302;8.120;2022-12-18T06:43:06;33.10;;;13.60;;
19043;SDS011;9654;52.302;8.120;2022-12-18T06:45:33;30.90;;;13.40;;
19043;SDS011;9654;52.302;8.120;2022-12-18T06:48:00;32.90;;;13.03;;
19043;SDS011;9654;52.302;8.120;2022-12-18T06:50:28;37.23;;;13.37;;
19043;SDS011;9654;52.302;8.120;2022-12-18T06:52:55;31.33;;;12.90;;
19043;SDS011;9654;52.302;8.120;2022-12-18T06:55:22;25.97;;;11.97;;
19043;SDS011;9654;52.302;8.120;2022-12-18T06:57:49;32.60;;;12.37;;
19043;SDS011;9654;52.302;8.120;2022-12-18T07:00:16;29.10;;;11.57;;
19043;SDS011;9654;52.302;8.120;2022-12-18T07:02:43;31.57;;;13.43;;
19043;SDS011;9654;52.302;8.120;2022-12-18T07:05:10;30.87;;;13.17;;
19043;SDS011;9654;52.302;8.120;2022-12-18T07:07:38;27.93;;;12.70;;
19043;SDS011;9654;52.302;8.120;2022-12-18T07:10:05;25.93;;;12.03;;
19043;SDS011;9654;52.302;8.120;2022-12-18T07:12:32;29.40;;;12.83;;
19043;SDS011;9654;52.302;8.120;2022-12-18T07:14:59;30.60;;;13.10;;
19043;SDS011;9654;52.302;8.120;2022-12-18T07:17:28;32.13;;;13.67;;
19043;SDS011;9654;52.302;8.120;2022-12-18T07:19:55;39.10;;;16.00;;
19043;SDS011;9654;52.302;8.120;2022-12-18T07:22:22;41.37;;;16.83;;
19043;SDS011;9654;52.302;8.120;2022-12-18T07:24:52;42.00;;;16.83;;
19043;SDS011;9654;52.302;8.120;2022-12-18T07:27:19;42.37;;;18.27;;
19043;SDS011;9654;52.302;8.120;2022-12-18T07:29:45;35.00;;;14.63;;
19043;SDS011;9654;52.302;8.120;2022-12-18T07:32:12;35.97;;;14.63;;
19043;SDS011;9654;52.302;8.120;2022-12-18T07:34:45;29.93;;;12.90;;
19043;SDS011;9654;52.302;8.120;2022-12-18T07:37:12;30.10;;;12.23;;
19043;SDS011;9654;52.302;8.120;2022-12-18T07:39:39;29.07;;;13.33;;
19043;SDS011;9654;52.302;8.120;2022-12-18T07:42:10;31.27;;;13.30;;
19043;SDS011;9654;52.302;8.120;2022-12-18T07:44:55;27.50;;;12.90;;
19043;SDS011;9654;52.302;8.120;2022-12-18T07:47:22;32.27;;;12.97;;
19043;SDS011;9654;52.302;8.120;2022-12-18T07:49:49;26.17;;;12.27;;
19043;SDS011;9654;52.302;8.120;2022-12-18T07:52:16;24.03;;;11.60;;
19043;SDS011;9654;52.302;8.120;2022-12-18T07:54:42;30.83;;;12.13;;
19043;SDS011;9654;52.302;8.120;2022-12-18T07:57:11;33.33;;;13.13;;
19043;SDS011;9654;52.302;8.120;2022-12-18T07:59:41;34.57;;;12.63;;
19043;SDS011;9654;52.302;8.120;2022-12-18T08:02:08;28.17;;;13.30;;
19043;SDS011;9654;52.302;8.120;2022-12-18T08:04:35;32.10;;;13.33;;
19043;SDS011;9654;52.302;8.120;2022-12-18T08:07:04;36.03;;;13.93;;
19043;SDS011;9654;52.302;8.120;2022-12-18T08:09:31;34.97;;;14.10;;
19043;SDS011;9654;52.302;8.120;2022-12-18T08:11:57;27.63;;;13.10;;
19043;SDS011;9654;52.302;8.120;2022-12-18T08:14:27;34.67;;;12.47;;
19043;SDS011;9654;52.302;8.120;2022-12-18T08:16:53;27.23;;;12.77;;
19043;SDS011;9654;52.302;8.120;2022-12-18T08:19:20;27.60;;;13.10;;
19043;SDS011;9654;52.302;8.120;2022-12-18T08:21:47;36.57;;;14.60;;
19043;SDS011;9654;52.302;8.120;2022-12-18T08:24:14;33.40;;;13.77;;
19043;SDS011;9654;52.302;8.120;2022-12-18T08:26:41;32.33;;;13.50;;
19043;SDS011;9654;52.302;8.120;2022-12-18T08:29:17;35.10;;;13.90;;
19043;SDS011;9654;52.302;8.120;2022-12-18T08:31:46;32.60;;;13.63;;
19043;SDS011;9654;52.302;8.120;2022-12-18T08:34:13;34.43;;;14.07;;
19043;SDS011;9654;52.302;8.120;2022-12-18T08:36:40;30.60;;;13.23;;
19043;SDS011;9654;52.302;8.120;2022-12-18T08:39:06;29.97;;;13.13;;
19043;SDS011;9654;52.302;8.120;2022-12-18T08:41:33;38.10;;;16.30;;
19043;SDS011;9654;52.302;8.120;2022-12-18T08:47:05;34.77;;;13.87;;
19043;SDS011;9654;52.302;8.120;2022-12-18T08:49:32;34.53;;;15.27;;
19043;SDS011;9654;52.302;8.120;2022-12-18T08:51:59;33.43;;;15.03;;
19043;SDS011;9654;52.302;8.120;2022-12-18T08:54:26;34.20;;;15.27;;
19043;SDS011;9654;52.302;8.120;2022-12-18T08:56:53;33.53;;;15.60;;
19043;SDS011;9654;52.302;8.120;2022-12-18T08:59:20;31.13;;;15.03;;
19043;SDS011;9654;52.302;8.120;2022-12-18T09:01:48;32.90;;;13.93;;
19043;SDS011;9654;52.302;8.120;2022-12-18T09:04:16;33.07;;;15.37;;
19043;SDS011;9654;52.302;8.120;2022-12-18T09:06:43;44.57;;;17.70;;
19043;SDS011;9654;52.302;8.120;2022-12-18T09:09:10;28.70;;;12.97;;
19043;SDS011;9654;52.302;8.120;2022-12-18T09:11:37;39.60;;;14.27;;
19043;SDS011;9654;52.302;8.120;2022-12-18T09:14:04;35.47;;;15.70;;
19043;SDS011;9654;52.302;8.120;2022-12-18T09:16:31;45.97;;;17.27;;
19043;SDS011;9654;52.302;8.120;2022-12-18T09:18:59;85.53;;;33.10;;
19043;SDS011;9654;52.302;8.120;2022-12-18T09:21:29;58.97;;;25.70;;
19043;SDS011;9654;52.302;8.120;2022-12-18T09:23:57;35.13;;;16.20;;
19043;SDS011;9654;52.302;8.120;2022-12-18T09:26:24;30.37;;;14.53;;
19043;SDS011;9654;52.302;8.120;2022-12-18T09:28:52;28.03;;;13.60;;
19043;SDS011;9654;52.302;8.120;2022-12-18T09:31:21;32.50;;;14.00;;
19043;SDS011;9654;52.302;8.120;2022-12-18T09:33:48;35.87;;;18.67;;
19043;SDS011;9654;52.302;8.120;2022-12-18T09:36:16;29.17;;;13.70;;
19043;SDS011;9654;52.302;8.120;2022-12-18T09:38:44;38.83;;;18.30;;
19043;SDS011;9654;52.302;8.120;2022-12-18T09:41:17;58.63;;;26.90;;
19043;SDS011;9654;52.302;8.120;2022-12-18T09:44:05;30.07;;;15.30;;
19043;SDS011;9654;52.302;8.120;2022-12-18T09:46:43;32.80;;;14.50;;
19043;SDS011;9654;52.302;8.120;2022-12-18T09:49:13;36.33;;;16.83;;
19043;SDS011;9654;52.302;8.120;2022-12-18T09:51:43;34.53;;;17.40;;
19043;SDS011;9654;52.302;8.120;2022-12-18T09:54:15;40.20;;;17.33;;
19043;SDS011;9654;52.302;8.120;2022-12-18T09:56:46;37.20;;;16.90;;
19043;SDS011;9654;52.302;8.120;2022-12-18T09:59:16;38.73;;;17.90;;
19043;SDS011;9654;52.302;8.120;2022-12-18T10:01:48;32.10;;;15.90;;
19043;SDS011;9654;52.302;8.120;2022-12-18T10:04:15;41.17;;;18.17;;
19043;SDS011;9654;52.302;8.120;2022-12-18T10:06:43;38.10;;;18.03;;
19043;SDS011;9654;52.302;8.120;2022-12-18T10:09:19;36.53;;;17.20;;
19043;SDS011;9654;52.302;8.120;2022-12-18T10:11:55;35.23;;;17.13;;
19043;SDS011;9654;52.302;8.120;2022-12-18T10:14:30;35.03;;;17.60;;
19043;SDS011;9654;52.302;8.120;2022-12-18T10:17:03;32.13;;;16.10;;
19043;SDS011;9654;52.302;8.120;2022-12-18T10:19:40;31.73;;;15.73;;
19043;SDS011;9654;52.302;8.120;2022-12-18T10:22:17;29.17;;;14.40;;
19043;SDS011;9654;52.302;8.120;2022-12-18T10:24:54;34.53;;;15.30;;
19043;SDS011;9654;52.302;8.120;2022-12-18T10:27:26;30.53;;;14.57;;
19043;SDS011;9654;52.302;8.120;2022-12-18T10:29:53;29.00;;;15.40;;
19043;SDS011;9654;52.302;8.120;2022-12-18T10:32:21;30.60;;;15.17;;
19043;SDS011;9654;52.302;8.120;2022-12-18T10:34:50;34.37;;;15.33;;
19043;SDS011;9654;52.302;8.120;2022-12-18T10:37:22;32.37;;;15.60;;
19043;SDS011;9654;52.302;8.120;2022-12-18T10:40:06;28.27;;;13.83;;
19043;SDS011;9654;52.302;8.120;2022-12-18T10:42:35;29.77;;;14.50;;
19043;SDS011;9654;52.302;8.120;2022-12-18T10:45:03;23.50;;;12.50;;
19043;SDS011;9654;52.302;8.120;2022-12-18T10:47:41;25.17;;;12.87;;
19043;SDS011;9654;52.302;8.120;2022-12-18T10:50:17;30.53;;;13.63;;
19043;SDS011;9654;52.302;8.120;2022-12-18T10:52:53;40.00;;;15.40;;
19043;SDS011;9654;52.302;8.120;2022-12-18T10:55:22;36.93;;;14.27;;
19043;SDS011;9654;52.302;8.120;2022-12-18T10:57:53;23.27;;;12.00;;
19043;SDS011;9654;52.302;8.120;2022-12-18T11:00:38;24.13;;;12.33;;
19043;SDS011;9654;52.302;8.120;2022-12-18T11:03:07;23.57;;;11.20;;
19043;SDS011;9654;52.302;8.120;2022-12-18T11:06:05;21.37;;;11.53;;
19043;SDS011;9654;52.302;8.120;2022-12-18T11:08:33;20.43;;;10.43;;
19043;SDS011;9654;52.302;8.120;2022-12-18T11:11:00;22.07;;;11.40;;
19043;SDS011;9654;52.302;8.120;2022-12-18T11:13:28;24.50;;;12.00;;
19043;SDS011;9654;52.302;8.120;2022-12-18T11:15:56;22.27;;;10.87;;
19043;SDS011;9654;52.302;8.120;2022-12-18T11:18:25;23.17;;;11.07;;
19043;SDS011;9654;52.302;8.120;2022-12-18T11:20:57;21.63;;;11.93;;
19043;SDS011;9654;52.302;8.120;2022-12-18T11:23:32;20.87;;;10.63;;
19043;SDS011;9654;52.302;8.120;2022-12-18T11:26:02;25.60;;;11.47;;
19043;SDS011;9654;52.302;8.120;2022-12-18T11:28:34;23.30;;;12.17;;
19043;SDS011;9654;52.302;8.120;2022-12-18T11:31:12;20.00;;;10.70;;
19043;SDS011;9654;52.302;8.120;2022-12-18T11:33:50;20.87;;;10.57;;
19043;SDS011;9654;52.302;8.120;2022-12-18T11:36:23;21.77;;;10.60;;
19043;SDS011;9654;52.302;8.120;2022-12-18T11:38:54;24.83;;;13.00;;
19043;SDS011;9654;52.302;8.120;2022-12-18T11:41:26;25.37;;;11.43;;
19043;SDS011;9654;52.302;8.120;2022-12-18T11:44:13;20.53;;;10.63;;
19043;SDS011;9654;52.302;8.120;2022-12-18T11:46:46;24.07;;;11.17;;
19043;SDS011;9654;52.302;8.120;2022-12-18T11:49:19;23.60;;;10.87;;
19043;SDS011;9654;52.302;8.120;2022-12-18T11:51:55;24.40;;;10.47;;
19043;SDS011;9654;52.302;8.120;2022-12-18T11:54:26;21.23;;;11.43;;
19043;SDS011;9654;52.302;8.120;2022-12-18T11:56:53;19.30;;;9.77;;
19043;SDS011;9654;52.302;8.120;2022-12-18T11:59:25;19.83;;;10.17;;
19043;SDS011;9654;52.302;8.120;2022-12-18T12:02:00;19.70;;;9.80;;
19043;SDS011;9654;52.302;8.120;2022-12-18T12:04:52;21.53;;;9.07;;
19043;SDS011;9654;52.302;8.120;2022-12-18T12:07:34;20.70;;;9.83;;
19043;SDS011;9654;52.302;8.120;2022-12-18T12:10:14;17.03;;;9.00;;
19043;SDS011;9654;52.302;8.120;2022-12-18T12:12:59;20.43;;;9.83;;
19043;SDS011;9654;52.302;8.120;2022-12-18T12:15:39;16.27;;;9.10;;
19043;SDS011;9654;52.302;8.120;2022-12-18T12:18:15;106.90;;;35.40;;
19043;SDS011;9654;52.302;8.120;2022-12-18T12:20:56;33.63;;;15.87;;
19043;SDS011;9654;52.302;8.120;2022-12-18T12:23:32;19.23;;;9.90;;
19043;SDS011;9654;52.302;8.120;2022-12-18T12:26:08;16.60;;;9.40;;
19043;SDS011;9654;52.302;8.120;2022-12-18T12:28:49;17.63;;;9.57;;
19043;SDS011;9654;52.302;8.120;2022-12-18T12:31:30;17.60;;;9.17;;
19043;SDS011;9654;52.302;8.120;2022-12-18T12:34:11;19.80;;;10.37;;
19043;SDS011;9654;52.302;8.120;2022-12-18T12:36:45;15.03;;;7.70;;
19043;SDS011;9654;52.302;8.120;2022-12-18T12:39:22;19.20;;;9.07;;
19043;SDS011;9654;52.302;8.120;2022-12-18T12:41:54;16.77;;;7.93;;
19043;SDS011;9654;52.302;8.120;2022-12-18T12:44:42;13.03;;;7.20;;
19043;SDS011;9654;52.302;8.120;2022-12-18T12:47:14;12.10;;;7.27;;
19043;SDS011;9654;52.302;8.120;2022-12-18T12:49:46;11.43;;;7.10;;
19043;SDS011;9654;52.302;8.120;2022-12-18T12:52:15;11.67;;;6.53;;
19043;SDS011;9654;52.302;8.120;2022-12-18T12:54:49;15.13;;;8.00;;
19043;SDS011;9654;52.302;8.120;2022-12-18T12:57:19;18.03;;;6.97;;
19043;SDS011;9654;52.302;8.120;2022-12-18T12:59:56;12.90;;;6.83;;
19043;SDS011;9654;52.302;8.120;2022-12-18T13:02:28;15.10;;;6.53;;
19043;SDS011;9654;52.302;8.120;2022-12-18T13:05:01;12.70;;;6.33;;
19043;SDS011;9654;52.302;8.120;2022-12-18T13:07:33;12.70;;;6.13;;
19043;SDS011;9654;52.302;8.120;2022-12-18T13:10:24;14.20;;;6.77;;
19043;SDS011;9654;52.302;8.120;2022-12-18T13:12:57;13.00;;;6.77;;
19043;SDS011;9654;52.302;8.120;2022-12-18T13:15:27;15.43;;;6.93;;
19043;SDS011;9654;52.302;8.120;2022-12-18T13:18:04;12.33;;;6.97;;
19043;SDS011;9654;52.302;8.120;2022-12-18T13:20:42;10.57;;;6.03;;
19043;SDS011;9654;52.302;8.120;2022-12-18T13:23:25;12.27;;;6.60;;
19043;SDS011;9654;52.302;8.120;2022-12-18T13:25:56;10.97;;;6.50;;
19043;SDS011;9654;52.302;8.120;2022-12-18T13:28:24;10.63;;;6.07;;
19043;SDS011;9654;52.302;8.120;2022-12-18T13:34:27;16.63;;;6.07;;
19043;SDS011;9654;52.302;8.120;2022-12-18T13:36:56;12.73;;;5.80;;
19043;SDS011;9654;52.302;8.120;2022-12-18T13:39:43;9.93;;;5.73;;
19043;SDS011;9654;52.302;8.120;2022-12-18T13:48:18;14.40;;;6.20;;
19043;SDS011;9654;52.302;8.120;2022-12-18T13:50:50;10.90;;;5.70;;
19043;SDS011;9654;52.302;8.120;2022-12-18T13:53:22;11.23;;;5.93;;
19043;SDS011;9654;52.302;8.120;2022-12-18T13:55:52;12.83;;;6.10;;
19043;SDS011;9654;52.302;8.120;2022-12-18T13:58:20;9.63;;;5.57;;
19043;SDS011;9654;52.302;8.120;2022-12-18T14:00:47;8.60;;;5.13;;
19043;SDS011;9654;52.302;8.120;2022-12-18T14:03:15;9.87;;;5.90;;
19043;SDS011;9654;52.302;8.120;2022-12-18T14:05:44;10.17;;;5.63;;
19043;SDS011;9654;52.302;8.120;2022-12-18T14:08:12;13.17;;;5.30;;
19043;SDS011;9654;52.302;8.120;2022-12-18T14:10:41;10.40;;;5.43;;
19043;SDS011;9654;52.302;8.120;2022-12-18T14:13:10;12.80;;;6.20;;
19043;SDS011;9654;52.302;8.120;2022-12-18T14:15:45;12.00;;;5.70;;
19043;SDS011;9654;52.302;8.120;2022-12-18T14:18:17;10.10;;;5.67;;
19043;SDS011;9654;52.302;8.120;2022-12-18T14:20:48;11.57;;;5.70;;
19043;SDS011;9654;52.302;8.120;2022-12-18T14:23:29;11.10;;;6.03;;
19043;SDS011;9654;52.302;8.120;2022-12-18T14:25:57;10.17;;;5.90;;
19043;SDS011;9654;52.302;8.120;2022-12-18T14:28:25;12.20;;;6.03;;
19043;SDS011;9654;52.302;8.120;2022-12-18T14:30:53;10.57;;;5.57;;
19043;SDS011;9654;52.302;8.120;2022-12-18T14:33:21;11.20;;;5.33;;
19043;SDS011;9654;52.302;8.120;2022-12-18T14:35:53;11.43;;;5.50;;
19043;SDS011;9654;52.302;8.120;2022-12-18T14:38:26;16.07;;;6.67;;
19043;SDS011;9654;52.302;8.120;2022-12-18T14:40:55;14.23;;;5.87;;
19043;SDS011;9654;52.302;8.120;2022-12-18T14:43:28;12.80;;;5.77;;
19043;SDS011;9654;52.302;8.120;2022-12-18T14:46:04;13.10;;;7.90;;
19043;SDS011;9654;52.302;8.120;2022-12-18T14:48:33;11.03;;;6.33;;
19043;SDS011;9654;52.302;8.120;2022-12-18T14:51:03;38.63;;;16.67;;
19043;SDS011;9654;52.302;8.120;2022-12-18T14:53:33;16.97;;;10.03;;
19043;SDS011;9654;52.302;8.120;2022-12-18T14:56:03;10.73;;;6.27;;
19043;SDS011;9654;52.302;8.120;2022-12-18T14:58:46;10.90;;;6.13;;
19043;SDS011;9654;52.302;8.120;2022-12-18T15:04:25;11.67;;;5.77;;
19043;SDS011;9654;52.302;8.120;2022-12-18T15:07:11;12.47;;;6.30;;
19043;SDS011;9654;52.302;8.120;2022-12-18T15:10:00;10.47;;;6.03;;
19043;SDS011;9654;52.302;8.120;2022-12-18T15:12:36;9.47;;;5.43;;
19043;SDS011;9654;52.302;8.120;2022-12-18T15:15:05;8.70;;;5.20;;